createdAt,value
2023-07-18T00:00:49.156Z,99506.70
2023-07-18T00:01:52.794Z,99500.40
2023-07-18T00:02:55.731Z,99496.43
2023-07-18T00:03:58.031Z,99493.41
2023-07-18T00:05:00.309Z,99498.41
2023-07-18T00:06:02.669Z,99498.73
2023-07-18T00:07:06.852Z,99494.23
2023-07-18T00:08:09.061Z,99486.77
2023-07-18T00:09:11.960Z,99489.78
2023-07-18T00:10:16.142Z,99489.11
2023-07-18T00:11:20.048Z,99488.28
2023-07-18T00:12:24.042Z,99487.11
2023-07-18T00:13:28.530Z,99488.11
2023-07-18T00:14:32.117Z,99480.13
2023-07-18T00:15:34.805Z,99485.13
2023-07-18T00:16:38.279Z,99487.78
2023-07-18T00:17:42.032Z,99490.77
2023-07-18T00:18:44.395Z,99475.31
2023-07-18T00:19:46.690Z,99484.78
2023-07-18T00:20:50.113Z,99483.61
2023-07-18T00:21:53.263Z,99479.64
2023-07-18T00:22:56.320Z,99475.63
2023-07-18T00:23:59.992Z,99473.33
2023-07-18T00:25:02.992Z,99479.49
2023-07-18T00:26:05.577Z,99484.95
2023-07-18T00:27:07.943Z,99472.16
2023-07-18T00:28:10.110Z,99472.83
2023-07-18T00:29:12.514Z,99477.47
2023-07-18T00:30:16.203Z,99474.98
2023-07-18T00:31:19.274Z,99467.18
2023-07-18T00:32:23.732Z,99475.96
2023-07-18T00:33:26.294Z,99458.20
2023-07-18T00:34:28.873Z,99463.52
2023-07-18T00:35:32.263Z,99467.16
2023-07-18T00:36:37.093Z,99455.85
2023-07-18T00:37:40.041Z,99458.70
2023-07-18T00:38:42.487Z,99455.86
2023-07-18T00:39:44.789Z,99451.39
2023-07-18T00:40:51.842Z,99450.55
2023-07-18T00:41:56.303Z,99455.55
2023-07-18T00:42:59.336Z,99443.92
2023-07-18T00:44:01.694Z,99439.91
2023-07-18T00:45:05.969Z,99441.27
2023-07-18T00:46:10.361Z,99438.93
2023-07-18T00:47:13.945Z,99439.92
2023-07-18T00:48:17.372Z,99436.27
2023-07-18T00:49:20.096Z,99434.95
2023-07-18T00:50:23.691Z,99437.26
2023-07-18T00:51:26.850Z,99438.43
2023-07-18T00:52:29.312Z,99435.28
2023-07-18T00:53:32.797Z,99432.27
2023-07-18T00:54:36.578Z,99433.27
2023-07-18T00:55:39.248Z,99429.44
2023-07-18T00:56:42.431Z,99427.63
2023-07-18T00:57:46.392Z,99425.78
2023-07-18T00:58:49.341Z,99430.28
2023-07-18T00:59:51.912Z,99429.61
2023-07-18T01:00:55.187Z,99418.97
2023-07-18T01:01:57.993Z,99426.13
2023-07-18T01:03:01.076Z,99425.63
2023-07-18T01:04:04.033Z,99416.98
2023-07-18T01:05:08.465Z,99412.02
2023-07-18T01:06:12.711Z,99406.85
2023-07-18T01:07:16.485Z,99407.20
2023-07-18T01:08:18.964Z,99407.03
2023-07-18T01:09:21.378Z,99403.03
2023-07-18T01:10:26.317Z,99406.71
2023-07-18T01:11:28.814Z,99399.23
2023-07-18T01:12:31.641Z,99397.70
2023-07-18T01:13:35.275Z,99390.09
2023-07-18T01:14:37.660Z,99389.41
2023-07-18T01:15:40.455Z,99389.05
2023-07-18T01:16:43.092Z,99380.08
2023-07-18T01:17:49.002Z,99392.02
2023-07-18T01:18:53.149Z,99384.72
2023-07-18T01:19:55.914Z,99394.18
2023-07-18T01:21:00.894Z,99382.73
2023-07-18T01:22:03.465Z,99387.05
2023-07-18T01:23:08.379Z,99384.56
2023-07-18T01:24:11.087Z,99382.20
2023-07-18T01:25:15.821Z,99380.09
2023-07-18T01:26:18.249Z,99383.38
2023-07-18T01:27:21.960Z,99378.73
2023-07-18T01:28:24.636Z,99379.91
2023-07-18T01:29:27.609Z,99379.55
2023-07-18T01:30:31.431Z,99377.57
2023-07-18T01:31:34.102Z,99373.73
2023-07-18T01:32:38.753Z,99374.41
2023-07-18T01:34:54.053Z,99374.06
2023-07-18T01:35:56.242Z,99368.42
2023-07-18T01:36:58.801Z,99374.77
2023-07-18T01:38:01.184Z,99369.77
2023-07-18T01:39:04.172Z,99367.09
2023-07-18T01:40:08.876Z,99365.43
2023-07-18T01:41:12.226Z,99367.78
2023-07-18T01:42:16.294Z,99362.81
2023-07-18T01:43:18.908Z,99363.31
2023-07-18T01:44:21.034Z,99364.80
2023-07-18T01:45:25.391Z,99362.46
2023-07-18T01:46:29.412Z,99365.79
2023-07-18T01:47:33.721Z,99363.14
2023-07-18T01:48:37.220Z,99371.12
2023-07-18T01:49:39.597Z,99371.94
2023-07-18T01:50:42.145Z,99372.11
2023-07-18T01:51:44.454Z,99370.63
2023-07-18T01:53:58.739Z,99361.83
2023-07-18T01:55:02.636Z,99366.34
2023-07-18T01:56:06.456Z,99369.64
2023-07-18T01:57:08.889Z,99369.50
2023-07-18T01:58:12.004Z,99369.50
2023-07-18T01:59:14.060Z,99372.16
2023-07-18T02:00:19.830Z,99375.48
2023-07-18T02:01:22.686Z,99384.09
2023-07-18T02:02:25.088Z,99369.32
2023-07-18T02:03:27.634Z,99372.47
2023-07-18T02:04:30.151Z,99372.33
2023-07-18T02:05:33.048Z,99375.31
2023-07-18T02:06:35.297Z,99370.81
2023-07-18T02:07:38.426Z,99373.82
2023-07-18T02:08:41.183Z,99365.67
2023-07-18T02:09:43.646Z,99365.35
2023-07-18T02:10:46.058Z,99365.17
2023-07-18T02:11:48.341Z,99372.16
2023-07-18T02:12:55.062Z,99370.98
2023-07-18T02:14:01.519Z,99366.52
2023-07-18T02:15:08.923Z,99371.83
2023-07-18T02:16:18.488Z,99373.82
2023-07-18T02:17:22.393Z,99371.16
2023-07-18T02:18:24.876Z,99369.49
2023-07-18T02:19:28.129Z,99374.31
2023-07-18T02:20:30.880Z,99373.00
2023-07-18T02:21:33.845Z,99371.16
2023-07-18T02:22:37.265Z,99371.33
2023-07-18T02:23:41.126Z,99372.14
2023-07-18T02:24:44.266Z,99371.64
2023-07-18T02:25:47.002Z,99372.49
2023-07-18T02:26:49.319Z,99368.00
2023-07-18T02:27:51.597Z,99371.16
2023-07-18T02:28:54.683Z,99365.48
2023-07-18T02:30:01.092Z,99366.47
2023-07-18T02:31:03.437Z,99363.81
2023-07-18T02:32:07.295Z,99365.48
2023-07-18T02:33:09.661Z,99366.47
2023-07-18T02:34:14.139Z,99367.85
2023-07-18T02:35:18.776Z,99359.53
2023-07-18T02:36:22.413Z,99364.67
2023-07-18T02:37:26.549Z,99363.81
2023-07-18T02:38:28.984Z,99367.47
2023-07-18T02:39:33.233Z,99365.80
2023-07-18T02:40:35.722Z,99353.54
2023-07-18T02:41:40.004Z,99353.54
2023-07-18T02:42:42.298Z,99364.03
2023-07-18T02:43:44.553Z,99367.33
2023-07-18T02:44:47.891Z,99359.22
2023-07-18T02:45:55.512Z,99364.52
2023-07-18T02:46:57.978Z,99363.81
2023-07-18T02:48:01.409Z,99358.50
2023-07-18T02:49:03.966Z,99360.48
2023-07-18T02:50:08.724Z,99347.88
2023-07-18T02:51:11.128Z,99347.88
2023-07-18T02:52:13.517Z,99356.20
2023-07-18T02:53:15.788Z,99355.70
2023-07-18T02:54:18.773Z,99358.00
2023-07-18T02:55:21.130Z,99356.55
2023-07-18T02:56:23.616Z,99357.73
2023-07-18T02:57:26.835Z,99359.53
2023-07-18T02:58:29.137Z,99355.56
2023-07-18T02:59:32.020Z,99368.00
2023-07-18T03:00:36.514Z,99357.55
2023-07-18T03:01:39.478Z,99363.81
2023-07-18T03:02:42.694Z,99359.67
2023-07-18T03:03:45.254Z,99359.88
2023-07-18T03:04:48.201Z,99357.55
2023-07-18T03:05:53.517Z,99367.51
2023-07-18T03:06:55.951Z,99373.32
2023-07-18T03:07:59.524Z,99372.33
2023-07-18T03:09:02.447Z,99394.03
2023-07-18T03:10:06.540Z,99431.52
2023-07-18T03:11:09.371Z,99457.33
2023-07-18T03:12:11.942Z,99449.50
2023-07-18T03:13:15.060Z,99435.81
2023-07-18T03:14:18.780Z,99441.42
2023-07-18T03:15:22.165Z,99433.19
2023-07-18T03:16:24.626Z,99437.62
2023-07-18T03:17:26.986Z,99437.62
2023-07-18T03:18:30.503Z,99427.39
2023-07-18T03:19:34.136Z,99421.52
2023-07-18T03:20:39.454Z,99421.52
2023-07-18T03:21:41.878Z,99427.52
2023-07-18T03:23:58.668Z,99430.64
2023-07-18T03:25:08.004Z,99428.98
2023-07-18T03:26:10.533Z,99425.17
2023-07-18T03:27:13.818Z,99421.19
2023-07-18T03:28:16.387Z,99429.83
2023-07-18T03:29:19.095Z,99435.78
2023-07-18T03:30:21.777Z,99438.44
2023-07-18T03:31:24.363Z,99433.12
2023-07-18T03:32:26.905Z,99424.86
2023-07-18T03:33:29.517Z,99415.20
2023-07-18T03:34:32.029Z,99413.04
2023-07-18T03:35:35.893Z,99421.68
2023-07-18T03:36:38.601Z,99422.41
2023-07-18T03:37:40.988Z,99424.80
2023-07-18T03:38:43.568Z,99430.48
2023-07-18T03:39:46.051Z,99423.16
2023-07-18T03:40:48.472Z,99427.14
2023-07-18T03:41:50.853Z,99427.14
2023-07-18T03:42:53.231Z,99434.12
2023-07-18T03:43:56.096Z,99429.32
2023-07-18T03:45:00.381Z,99431.80
2023-07-18T03:46:03.376Z,99420.20
2023-07-18T03:48:11.007Z,99422.48
2023-07-18T03:49:13.488Z,99423.16
2023-07-18T03:50:18.307Z,99426.19
2023-07-18T03:51:21.490Z,99425.53
2023-07-18T03:52:25.179Z,99420.51
2023-07-18T03:53:27.668Z,99415.56
2023-07-18T03:54:30.337Z,99415.56
2023-07-18T03:55:33.165Z,99414.27
2023-07-18T03:56:37.034Z,99425.53
2023-07-18T03:57:41.158Z,99429.18
2023-07-18T03:58:43.666Z,99427.52
2023-07-18T03:59:47.533Z,99420.53
2023-07-18T04:00:49.885Z,99418.89
2023-07-18T04:01:54.485Z,99420.67
2023-07-18T04:02:59.229Z,99424.83
2023-07-18T04:04:02.762Z,99419.83
2023-07-18T04:05:05.994Z,99422.52
2023-07-18T04:06:09.394Z,99423.73
2023-07-18T04:07:12.019Z,99419.09
2023-07-18T04:08:14.466Z,99420.83
2023-07-18T04:09:16.851Z,99426.59
2023-07-18T04:10:19.621Z,99420.02
2023-07-18T04:11:22.184Z,99419.79
2023-07-18T04:12:25.211Z,99419.95
2023-07-18T04:13:27.735Z,99429.08
2023-07-18T04:14:30.078Z,99416.38
2023-07-18T04:15:32.447Z,99415.05
2023-07-18T04:16:35.901Z,99415.02
2023-07-18T04:17:39.623Z,99416.16
2023-07-18T04:18:42.205Z,99426.78
2023-07-18T04:19:44.534Z,99406.70
2023-07-18T04:20:46.936Z,99416.45
2023-07-18T04:21:49.321Z,99402.42
2023-07-18T04:22:51.994Z,99405.77
2023-07-18T04:23:54.958Z,99399.51
2023-07-18T04:24:57.898Z,99405.93
2023-07-18T04:26:02.275Z,99408.16
2023-07-18T04:27:06.246Z,99397.02
2023-07-18T04:28:08.584Z,99392.58
2023-07-18T04:29:10.841Z,99404.34
2023-07-18T04:30:14.582Z,99408.45
2023-07-18T04:31:19.799Z,99401.59
2023-07-18T04:32:24.169Z,99403.94
2023-07-18T04:33:26.715Z,99411.51
2023-07-18T04:34:31.244Z,99420.66
2023-07-18T04:35:34.414Z,99405.08
2023-07-18T04:36:39.579Z,99411.42
2023-07-18T04:37:42.319Z,99409.35
2023-07-18T04:38:44.875Z,99398.11
2023-07-18T04:39:47.242Z,99417.83
2023-07-18T04:40:49.719Z,99410.17
2023-07-18T04:41:55.945Z,99404.45
2023-07-18T04:42:58.331Z,99404.29
2023-07-18T04:44:01.560Z,99407.46
2023-07-18T04:46:20.689Z,99411.84
2023-07-18T04:47:23.200Z,99413.48
2023-07-18T04:48:25.757Z,99415.16
2023-07-18T04:49:31.075Z,99414.69
2023-07-18T04:50:34.563Z,99415.52
2023-07-18T04:51:38.152Z,99416.59
2023-07-18T04:52:40.822Z,99422.48
2023-07-18T04:53:43.159Z,99414.69
2023-07-18T04:54:46.972Z,99408.64
2023-07-18T04:55:51.844Z,99397.58
2023-07-18T04:56:55.705Z,99408.19
2023-07-18T04:57:58.127Z,99403.34
2023-07-18T04:59:01.085Z,99406.91
2023-07-18T05:00:06.059Z,99402.48
2023-07-18T05:01:08.616Z,99409.03
2023-07-18T05:02:11.563Z,99408.41
2023-07-18T05:03:14.150Z,99402.95
2023-07-18T05:04:16.873Z,99400.23
2023-07-18T05:05:19.156Z,99397.48
2023-07-18T05:06:22.655Z,99399.51
2023-07-18T05:07:25.305Z,99393.44
2023-07-18T05:08:27.497Z,99406.42
2023-07-18T05:09:30.871Z,99405.20
2023-07-18T05:10:33.374Z,99392.51
2023-07-18T05:11:35.837Z,99405.08
2023-07-18T05:12:39.136Z,99391.47
2023-07-18T05:13:41.463Z,99392.05
2023-07-18T05:14:44.248Z,99390.48
2023-07-18T05:15:46.620Z,99391.14
2023-07-18T05:16:49.966Z,99391.50
2023-07-18T05:17:52.861Z,99386.82
2023-07-18T05:18:55.315Z,99385.54
2023-07-18T05:19:57.624Z,99397.91
2023-07-18T05:21:00.300Z,99402.66
2023-07-18T05:22:02.702Z,99402.79
2023-07-18T05:23:06.000Z,99408.58
2023-07-18T05:24:09.223Z,99416.59
2023-07-18T05:25:13.960Z,99423.17
2023-07-18T05:26:17.065Z,99430.89
2023-07-18T05:27:20.002Z,99420.98
2023-07-18T05:28:22.738Z,99416.50
2023-07-18T05:29:25.708Z,99418.06
2023-07-18T05:30:28.251Z,99419.46
2023-07-18T05:31:31.221Z,99426.02
2023-07-18T05:32:33.949Z,99426.02
2023-07-18T05:33:36.687Z,99427.20
2023-07-18T05:34:40.075Z,99414.02
2023-07-18T05:35:44.581Z,99412.11
2023-07-18T05:36:47.498Z,99414.95
2023-07-18T05:37:50.437Z,99397.29
2023-07-18T05:38:53.270Z,99397.29
2023-07-18T05:39:56.417Z,99404.02
2023-07-18T05:40:59.422Z,99400.10
2023-07-18T05:42:01.888Z,99400.01
2023-07-18T05:43:04.618Z,99400.23
2023-07-18T05:44:08.908Z,99400.07
2023-07-18T05:45:12.037Z,99399.51
2023-07-18T05:46:15.160Z,99402.27
2023-07-18T05:47:17.708Z,99410.58
2023-07-18T05:48:20.003Z,99410.58
2023-07-18T05:49:22.291Z,99403.55
2023-07-18T05:50:24.775Z,99401.28
2023-07-18T05:51:27.151Z,99398.30
2023-07-18T05:52:29.545Z,99398.63
2023-07-18T05:53:32.031Z,99404.19
2023-07-18T05:54:35.897Z,99387.64
2023-07-18T05:55:39.071Z,99391.66
2023-07-18T05:56:42.648Z,99382.61
2023-07-18T05:57:45.130Z,99389.13
2023-07-18T05:58:48.004Z,99381.20
2023-07-18T05:59:50.385Z,99395.87
2023-07-18T06:00:53.094Z,99391.24
2023-07-18T06:01:55.518Z,99397.88
2023-07-18T06:02:59.225Z,99388.73
2023-07-18T06:04:02.347Z,99390.56
2023-07-18T06:05:07.530Z,99391.55
2023-07-18T06:06:11.074Z,99398.06
2023-07-18T06:07:13.798Z,99407.55
2023-07-18T06:08:17.535Z,99402.63
2023-07-18T06:09:20.025Z,99399.94
2023-07-18T06:10:22.480Z,99391.73
2023-07-18T06:11:24.740Z,99395.40
2023-07-18T06:12:27.446Z,99398.06
2023-07-18T06:13:30.147Z,99390.90
2023-07-18T06:14:34.329Z,99386.14
2023-07-18T06:15:37.244Z,99379.55
2023-07-18T06:16:39.730Z,99381.89
2023-07-18T06:17:43.251Z,99384.78
2023-07-18T06:18:45.601Z,99388.09
2023-07-18T06:19:47.885Z,99398.08
2023-07-18T06:20:50.721Z,99404.36
2023-07-18T06:21:53.999Z,99403.72
2023-07-18T06:22:56.216Z,99403.06
2023-07-18T06:24:08.477Z,99403.72
2023-07-18T06:25:03.863Z,99394.75
2023-07-18T06:26:06.690Z,99392.41
2023-07-18T06:27:09.678Z,99396.39
2023-07-18T06:28:13.595Z,99400.55
2023-07-18T06:29:18.812Z,99395.58
2023-07-18T06:30:21.251Z,99395.90
2023-07-18T06:31:23.814Z,99384.73
2023-07-18T06:32:27.200Z,99385.34
2023-07-18T06:33:31.135Z,99382.55
2023-07-18T06:34:35.684Z,99374.77
2023-07-18T06:35:38.535Z,99367.63
2023-07-18T06:36:41.051Z,99365.64
2023-07-18T06:37:43.773Z,99370.80
2023-07-18T06:38:46.285Z,99374.79
2023-07-18T06:39:50.544Z,99376.75
2023-07-18T06:40:53.647Z,99371.11
2023-07-18T06:41:56.934Z,99374.16
2023-07-18T06:42:59.860Z,99381.46
2023-07-18T06:44:04.197Z,99379.80
2023-07-18T06:45:08.749Z,99375.30
2023-07-18T06:46:12.297Z,99373.14
2023-07-18T06:47:15.997Z,99371.83
2023-07-18T06:48:18.654Z,99367.52
2023-07-18T06:49:22.169Z,99380.27
2023-07-18T06:50:25.219Z,99369.81
2023-07-18T06:51:28.051Z,99366.11
2023-07-18T06:52:32.566Z,99365.27
2023-07-18T06:53:36.547Z,99368.56
2023-07-18T06:54:39.478Z,99365.00
2023-07-18T06:55:42.768Z,99372.95
2023-07-18T06:56:46.327Z,99375.88
2023-07-18T06:57:49.227Z,99378.14
2023-07-18T06:58:51.359Z,99378.80
2023-07-18T06:59:54.128Z,99374.10
2023-07-18T07:00:57.318Z,99376.47
2023-07-18T07:01:59.836Z,99381.38
2023-07-18T07:03:02.451Z,99377.13
2023-07-18T07:04:05.570Z,99376.43
2023-07-18T07:05:08.920Z,99377.24
2023-07-18T07:06:13.240Z,99372.70
2023-07-18T07:07:16.300Z,99369.39
2023-07-18T07:08:20.002Z,99369.39
2023-07-18T07:09:22.909Z,99374.48
2023-07-18T07:10:25.588Z,99371.92
2023-07-18T07:11:28.309Z,99367.87
2023-07-18T07:12:36.769Z,99368.02
2023-07-18T07:13:38.301Z,99377.02
2023-07-18T07:14:40.855Z,99373.02
2023-07-18T07:15:43.480Z,99368.73
2023-07-18T07:16:46.822Z,99366.02
2023-07-18T07:17:49.341Z,99372.53
2023-07-18T07:18:51.689Z,99372.63
2023-07-18T07:19:54.333Z,99368.81
2023-07-18T07:20:58.179Z,99368.68
2023-07-18T07:22:00.747Z,99358.49
2023-07-18T07:23:03.457Z,99361.09
2023-07-18T07:24:06.418Z,99368.37
2023-07-18T07:25:10.549Z,99365.41
2023-07-18T07:26:16.273Z,99366.73
2023-07-18T07:27:20.332Z,99369.22
2023-07-18T07:28:24.605Z,99365.55
2023-07-18T07:29:29.151Z,99368.20
2023-07-18T07:30:32.993Z,99377.17
2023-07-18T07:31:38.023Z,99374.02
2023-07-18T07:32:40.551Z,99381.41
2023-07-18T07:33:43.298Z,99369.92
2023-07-18T07:34:46.290Z,99380.16
2023-07-18T07:35:48.633Z,99377.86
2023-07-18T07:36:51.254Z,99375.67
2023-07-18T07:37:53.800Z,99379.81
2023-07-18T07:38:56.246Z,99372.41
2023-07-18T07:39:59.257Z,99381.04
2023-07-18T07:41:02.188Z,99382.13
2023-07-18T07:42:05.690Z,99382.61
2023-07-18T07:43:08.521Z,99400.84
2023-07-18T07:44:11.011Z,99385.42
2023-07-18T07:45:16.019Z,99390.41
2023-07-18T07:46:18.551Z,99390.88
2023-07-18T07:47:20.900Z,99390.81
2023-07-18T07:48:24.766Z,99395.75
2023-07-18T07:49:27.143Z,99399.40
2023-07-18T07:50:29.484Z,99391.70
2023-07-18T07:51:31.745Z,99391.66
2023-07-18T07:52:34.960Z,99404.02
2023-07-18T07:53:37.305Z,99395.25
2023-07-18T07:54:39.747Z,99392.41
2023-07-18T07:55:42.544Z,99394.77
2023-07-18T07:56:45.023Z,99384.72
2023-07-18T07:57:48.559Z,99387.56
2023-07-18T07:59:01.310Z,99389.49
2023-07-18T07:59:55.536Z,99378.51
2023-07-18T08:00:57.919Z,99380.31
2023-07-18T08:02:01.570Z,99389.22
2023-07-18T08:03:04.463Z,99393.39
2023-07-18T08:04:11.088Z,99386.26
2023-07-18T08:05:13.828Z,99391.55
2023-07-18T08:06:17.092Z,99385.41
2023-07-18T08:07:24.442Z,99382.50
2023-07-18T08:08:27.644Z,99382.50
2023-07-18T08:09:31.393Z,99401.80
2023-07-18T08:10:34.120Z,99387.50
2023-07-18T08:11:36.640Z,99388.08
2023-07-18T08:12:40.226Z,99379.58
2023-07-18T08:13:44.532Z,99385.95
2023-07-18T08:14:49.054Z,99379.33
2023-07-18T08:15:52.332Z,99379.27
2023-07-18T08:16:55.002Z,99382.72
2023-07-18T08:17:58.062Z,99370.26
2023-07-18T08:19:00.482Z,99365.72
2023-07-18T08:20:07.627Z,99375.81
2023-07-18T08:21:09.421Z,99387.30
2023-07-18T08:22:12.169Z,99376.84
2023-07-18T08:23:15.602Z,99369.16
2023-07-18T08:24:18.138Z,99369.97
2023-07-18T08:25:20.675Z,99379.28
2023-07-18T08:26:23.711Z,99365.30
2023-07-18T08:27:27.181Z,99367.73
2023-07-18T08:28:32.448Z,99373.77
2023-07-18T08:29:38.311Z,99367.31
2023-07-18T08:30:41.187Z,99384.83
2023-07-18T08:31:43.987Z,99387.34
2023-07-18T08:32:47.842Z,99384.93
2023-07-18T08:33:51.093Z,99386.62
2023-07-18T08:34:55.311Z,99376.31
2023-07-18T08:35:57.885Z,99384.90
2023-07-18T08:37:01.690Z,99383.90
2023-07-18T08:38:05.439Z,99386.86
2023-07-18T08:39:11.808Z,99386.53
2023-07-18T08:40:14.028Z,99379.97
2023-07-18T08:41:19.421Z,99383.67
2023-07-18T08:42:25.681Z,99380.90
2023-07-18T08:43:28.093Z,99389.88
2023-07-18T08:44:30.591Z,99394.02
2023-07-18T08:45:36.553Z,99398.69
2023-07-18T08:46:45.971Z,99399.20
2023-07-18T08:47:51.410Z,99417.66
2023-07-18T08:48:54.820Z,99391.23
2023-07-18T08:49:57.648Z,99399.39
2023-07-18T08:51:00.782Z,99404.02
2023-07-18T08:52:03.328Z,99394.07
2023-07-18T08:53:05.770Z,99397.67
2023-07-18T08:54:08.737Z,99398.52
2023-07-18T08:55:11.203Z,99394.03
2023-07-18T08:56:13.940Z,99397.41
2023-07-18T08:57:17.138Z,99395.07
2023-07-18T08:58:22.891Z,99406.20
2023-07-18T08:59:25.453Z,99407.52
2023-07-18T09:00:27.827Z,99400.05
2023-07-18T09:01:30.184Z,99395.41
2023-07-18T09:02:32.535Z,99405.38
2023-07-18T09:03:35.779Z,99400.34
2023-07-18T09:04:37.985Z,99403.31
2023-07-18T09:05:40.608Z,99404.66
2023-07-18T09:06:52.166Z,99409.33
2023-07-18T09:07:59.201Z,99403.84
2023-07-18T09:09:01.534Z,99404.38
2023-07-18T09:10:04.749Z,99401.38
2023-07-18T09:11:08.048Z,99400.05
2023-07-18T09:12:11.518Z,99408.88
2023-07-18T09:13:15.008Z,99411.35
2023-07-18T09:14:26.038Z,99407.70
2023-07-18T09:15:29.526Z,99406.20
2023-07-18T09:16:32.252Z,99408.69
2023-07-18T09:17:35.447Z,99405.36
2023-07-18T09:18:39.401Z,99398.73
2023-07-18T09:19:43.413Z,99404.87
2023-07-18T09:20:45.995Z,99403.70
2023-07-18T09:21:48.850Z,99397.34
2023-07-18T09:22:55.756Z,99392.02
2023-07-18T09:23:58.222Z,99391.61
2023-07-18T09:25:00.966Z,99399.31
2023-07-18T09:26:13.101Z,99400.68
2023-07-18T09:27:17.578Z,99405.84
2023-07-18T09:28:20.528Z,99408.79
2023-07-18T09:29:23.334Z,99410.92
2023-07-18T09:30:31.864Z,99407.27
2023-07-18T09:31:35.476Z,99406.64
2023-07-18T09:32:37.892Z,99399.36
2023-07-18T09:33:40.543Z,99399.84
2023-07-18T09:34:54.254Z,99388.30
2023-07-18T09:36:00.556Z,99403.56
2023-07-18T09:37:04.815Z,99393.88
2023-07-18T09:38:10.537Z,99389.73
2023-07-18T09:39:13.979Z,99388.05
2023-07-18T09:40:18.684Z,99381.68
2023-07-18T09:41:23.405Z,99376.52
2023-07-18T09:42:27.365Z,99380.09
2023-07-18T09:43:31.560Z,99373.85
2023-07-18T09:44:37.240Z,99378.51
2023-07-18T09:45:41.540Z,99368.63
2023-07-18T09:46:44.197Z,99377.34
2023-07-18T09:47:47.263Z,99379.51
2023-07-18T09:48:52.115Z,99379.51
2023-07-18T09:49:54.926Z,99391.91
2023-07-18T09:51:00.084Z,99383.03
2023-07-18T09:52:05.077Z,99372.34
2023-07-18T09:53:11.750Z,99384.78
2023-07-18T09:54:16.632Z,99386.83
2023-07-18T09:55:30.435Z,99390.27
2023-07-18T09:56:38.787Z,99382.42
2023-07-18T09:57:43.952Z,99378.91
2023-07-18T09:58:49.868Z,99386.52
2023-07-18T09:59:55.441Z,99383.47
2023-07-18T10:01:01.349Z,99376.48
2023-07-18T10:02:06.651Z,99379.13
2023-07-18T10:03:10.123Z,99398.98
2023-07-18T10:04:13.586Z,99373.41
2023-07-18T10:05:17.654Z,99389.55
2023-07-18T10:06:21.918Z,99381.57
2023-07-18T10:07:25.752Z,99381.57
2023-07-18T10:08:30.165Z,99384.87
2023-07-18T10:09:33.760Z,99397.52
2023-07-18T10:10:36.183Z,99388.67
2023-07-18T10:12:01.911Z,99380.91
2023-07-18T10:13:04.781Z,99384.66
2023-07-18T10:14:10.664Z,99385.56
2023-07-18T10:15:14.124Z,99402.50
2023-07-18T10:16:19.018Z,99396.94
2023-07-18T10:17:42.827Z,99377.48
2023-07-18T10:18:49.940Z,99406.93
2023-07-18T10:19:52.598Z,99391.17
2023-07-18T10:21:01.593Z,99392.28
2023-07-18T10:22:04.487Z,99394.89
2023-07-18T10:23:08.705Z,99384.37
2023-07-18T10:24:24.849Z,99387.28
2023-07-18T10:25:32.151Z,99390.52
2023-07-18T10:26:35.063Z,99397.09
2023-07-18T10:27:41.571Z,99413.98
2023-07-18T10:28:47.031Z,99403.56
2023-07-18T10:30:04.051Z,99398.03
2023-07-18T10:31:07.282Z,99407.83
2023-07-18T10:32:12.008Z,99391.84
2023-07-18T10:33:15.259Z,99391.00
2023-07-18T10:34:19.918Z,99383.61
2023-07-18T10:35:28.466Z,99381.41
2023-07-18T10:36:31.886Z,99371.03
2023-07-18T10:37:34.418Z,99373.73
2023-07-18T10:38:37.485Z,99384.08
2023-07-18T10:39:47.571Z,99385.27
2023-07-18T10:40:52.251Z,99377.59
2023-07-18T10:41:55.023Z,99380.67
2023-07-18T10:42:57.486Z,99380.76
2023-07-18T10:44:00.594Z,99380.29
2023-07-18T10:45:05.661Z,99377.35
2023-07-18T10:46:08.911Z,99382.36
2023-07-18T10:47:19.229Z,99377.68
2023-07-18T10:48:22.821Z,99377.30
2023-07-18T10:49:31.103Z,99378.88
2023-07-18T10:50:36.046Z,99378.96
2023-07-18T10:51:38.800Z,99377.48
2023-07-18T10:52:43.751Z,99373.35
2023-07-18T10:53:49.766Z,99373.35
2023-07-18T10:54:58.608Z,99384.30
2023-07-18T10:56:03.598Z,99387.88
2023-07-18T10:57:08.724Z,99378.55
2023-07-18T10:58:13.521Z,99395.55
2023-07-18T10:59:17.881Z,99373.34
2023-07-18T11:00:20.997Z,99378.23
2023-07-18T11:01:27.389Z,99373.92
2023-07-18T11:02:39.994Z,99389.58
2023-07-18T11:03:47.743Z,99380.77
2023-07-18T11:04:55.297Z,99369.77
2023-07-18T11:05:57.603Z,99372.81
2023-07-18T11:06:59.941Z,99374.41
2023-07-18T11:08:02.948Z,99367.03
2023-07-18T11:09:09.428Z,99368.31
2023-07-18T12:09:29.847Z,99316.97
2023-07-18T12:10:35.443Z,99327.16
2023-07-18T12:11:38.433Z,99326.88
2023-07-18T12:12:40.962Z,99343.35
2023-07-18T12:13:45.323Z,99323.41
2023-07-18T12:14:48.330Z,99324.33
2023-07-18T12:15:51.013Z,99328.53
2023-07-18T12:16:55.536Z,99320.96
2023-07-18T12:17:58.061Z,99316.10
2023-07-18T12:19:00.550Z,99320.73
2023-07-18T12:20:04.173Z,99312.16
2023-07-18T12:21:08.690Z,99310.77
2023-07-18T12:22:13.005Z,99310.77
2023-07-18T12:23:15.598Z,99315.95
2023-07-18T12:24:19.816Z,99297.97
2023-07-18T12:25:22.836Z,99322.91
2023-07-18T12:26:25.962Z,99319.59
2023-07-18T12:27:29.656Z,99311.77
2023-07-18T12:28:33.008Z,99306.04
2023-07-18T12:29:36.785Z,99318.88
2023-07-18T12:30:39.591Z,99319.76
2023-07-18T12:31:51.124Z,99315.30
2023-07-18T12:32:54.602Z,99317.56
2023-07-18T12:33:58.231Z,99336.39
2023-07-18T12:35:01.136Z,99329.55
2023-07-18T12:36:03.978Z,99311.98
2023-07-18T12:37:08.083Z,99305.31
2023-07-18T12:38:12.246Z,99326.73
2023-07-18T12:39:16.230Z,99309.73
2023-07-18T12:40:19.013Z,99315.37
2023-07-18T12:41:22.538Z,99313.42
2023-07-18T12:42:25.291Z,99305.45
2023-07-18T12:43:27.706Z,99295.83
2023-07-18T12:44:47.175Z,99306.83
2023-07-18T12:45:49.738Z,99303.77
2023-07-18T12:46:52.595Z,99317.95
2023-07-18T12:47:57.117Z,99298.78
2023-07-18T12:50:07.588Z,99313.85
2023-07-18T12:51:10.096Z,99300.45
2023-07-18T12:52:13.111Z,99314.89
2023-07-18T12:53:15.247Z,99302.11
2023-07-18T12:54:18.334Z,99290.56
2023-07-18T12:55:21.074Z,99302.13
2023-07-18T12:56:25.198Z,99304.59
2023-07-18T12:57:28.197Z,99353.25
2023-07-18T12:58:32.177Z,99306.60
2023-07-18T12:59:34.354Z,99305.80
2023-07-18T13:00:37.368Z,99289.13
2023-07-18T13:01:40.291Z,99303.14
2023-07-18T13:02:43.162Z,99331.39
2023-07-18T13:03:45.526Z,99311.20
2023-07-18T13:06:07.767Z,99307.07
2023-07-18T13:07:11.666Z,99303.77
2023-07-18T13:08:13.894Z,99298.42
2023-07-18T13:09:16.298Z,99301.50
2023-07-18T13:10:18.973Z,99323.55
2023-07-18T13:11:22.200Z,99315.29
2023-07-18T13:12:25.343Z,99293.03
2023-07-18T13:13:27.853Z,99318.20
2023-07-18T13:14:30.794Z,99323.97
2023-07-18T13:15:33.212Z,99315.71
2023-07-18T13:16:35.915Z,99300.05
2023-07-18T13:17:38.501Z,99290.98
2023-07-18T13:18:41.579Z,99300.05
2023-07-18T13:19:43.942Z,99295.91
2023-07-18T13:20:46.553Z,99297.20
2023-07-18T13:21:48.770Z,99305.41
2023-07-18T13:22:51.005Z,99297.88
2023-07-18T13:23:53.759Z,99313.26
2023-07-18T13:24:55.964Z,99322.55
2023-07-18T13:25:58.473Z,99301.30
2023-07-18T13:27:00.612Z,99304.48
2023-07-18T13:28:02.919Z,99322.59
2023-07-18T13:29:06.580Z,99303.17
2023-07-18T13:30:10.854Z,99294.11
2023-07-18T13:31:13.220Z,99307.05
2023-07-18T13:32:16.081Z,99316.33
2023-07-18T13:33:18.442Z,99292.86
2023-07-18T13:34:23.588Z,99287.97
2023-07-18T13:35:26.408Z,99300.37